createdAt,value
2024-03-14T00:00:24.042Z,7.6
2024-03-14T00:01:25.832Z,7.6
2024-03-14T00:02:27.795Z,7.6
2024-03-14T00:03:29.940Z,7.6
2024-03-14T00:04:31.788Z,7.6
2024-03-14T00:05:33.808Z,7.6
2024-03-14T00:06:35.813Z,7.6
2024-03-14T00:07:37.783Z,7.6
2024-03-14T00:08:39.777Z,7.6
2024-03-14T00:09:41.809Z,7.6
2024-03-14T00:10:43.817Z,7.6
2024-03-14T00:11:45.807Z,7.6
2024-03-14T00:12:47.828Z,7.6
2024-03-14T00:13:49.797Z,7.6
2024-03-14T00:14:51.942Z,7.6
2024-03-14T00:15:53.794Z,7.6
2024-03-14T00:16:55.770Z,7.7
2024-03-14T00:17:57.873Z,7.7
2024-03-14T00:18:59.788Z,7.7
2024-03-14T00:20:01.854Z,7.7
2024-03-14T00:21:03.826Z,7.7
2024-03-14T00:22:05.768Z,7.7
2024-03-14T00:23:07.759Z,7.7
2024-03-14T00:24:09.779Z,7.8
2024-03-14T00:25:11.801Z,7.8
2024-03-14T00:26:13.766Z,7.8
2024-03-14T00:27:15.831Z,7.8
2024-03-14T00:28:17.765Z,7.8
2024-03-14T00:29:19.780Z,7.8
2024-03-14T00:30:21.801Z,7.8
2024-03-14T00:31:23.761Z,7.8
2024-03-14T00:32:25.916Z,7.8
2024-03-14T00:33:27.875Z,7.8
2024-03-14T00:34:29.782Z,7.7
2024-03-14T00:35:31.745Z,7.7
2024-03-14T00:36:33.792Z,7.7
2024-03-14T00:37:35.742Z,7.7
2024-03-14T00:38:37.771Z,7.7
2024-03-14T00:39:39.819Z,7.7
2024-03-14T00:40:41.764Z,7.8
2024-03-14T00:41:43.814Z,7.7
2024-03-14T00:42:45.767Z,7.7
2024-03-14T00:43:47.765Z,7.8
2024-03-14T00:44:49.758Z,7.8
2024-03-14T00:45:51.738Z,7.8
2024-03-14T00:46:53.743Z,7.8
2024-03-14T00:47:55.813Z,7.8
2024-03-14T00:48:57.826Z,7.8
2024-03-14T00:49:59.757Z,7.7
2024-03-14T00:51:01.742Z,7.7
2024-03-14T00:52:03.762Z,7.7
2024-03-14T00:53:05.752Z,7.6
2024-03-14T00:54:07.796Z,7.7
2024-03-14T00:55:09.722Z,7.6
2024-03-14T00:56:11.758Z,7.6
2024-03-14T00:57:13.828Z,7.6
2024-03-14T00:58:15.718Z,7.6
2024-03-14T00:59:17.736Z,7.6
2024-03-14T01:00:19.781Z,7.6
2024-03-14T01:01:21.787Z,7.6
2024-03-14T01:02:23.740Z,7.6
2024-03-14T01:03:25.822Z,7.6
2024-03-14T01:04:27.712Z,7.6
2024-03-14T01:05:29.707Z,7.7
2024-03-14T01:06:31.765Z,7.7
2024-03-14T01:07:33.704Z,7.7
2024-03-14T01:08:35.714Z,7.7
2024-03-14T01:09:37.756Z,7.7
2024-03-14T01:10:39.741Z,7.8
2024-03-14T01:11:41.764Z,7.8
2024-03-14T01:12:43.700Z,7.8
2024-03-14T01:13:45.702Z,7.8
2024-03-14T01:14:47.750Z,7.8
2024-03-14T01:15:49.734Z,7.8
2024-03-14T01:16:51.696Z,7.8
2024-03-14T01:17:53.802Z,7.8
2024-03-14T01:18:55.764Z,7.8
2024-03-14T01:19:57.715Z,7.8
2024-03-14T01:20:59.759Z,7.8
2024-03-14T01:22:01.689Z,7.8
2024-03-14T01:23:03.692Z,7.8
2024-03-14T01:24:05.709Z,7.8
2024-03-14T01:25:07.747Z,7.8
2024-03-14T01:26:09.683Z,7.8
2024-03-14T01:27:11.920Z,7.8
2024-03-14T01:28:13.696Z,7.8
2024-03-14T01:29:15.709Z,7.8
2024-03-14T01:30:17.760Z,7.8
2024-03-14T01:31:19.945Z,7.8
2024-03-14T01:32:21.677Z,7.8
2024-03-14T01:33:23.709Z,7.8
2024-03-14T01:34:25.701Z,7.9
2024-03-14T01:35:27.689Z,7.8
2024-03-14T01:36:29.693Z,7.9
2024-03-14T01:37:31.679Z,7.8
2024-03-14T01:38:33.696Z,7.9
2024-03-14T01:39:35.759Z,7.8
2024-03-14T01:40:37.667Z,7.8
2024-03-14T01:41:39.690Z,7.8
2024-03-14T01:42:41.694Z,7.8
2024-03-14T01:43:43.710Z,7.8
2024-03-14T01:44:45.686Z,7.8
2024-03-14T01:45:47.686Z,7.8
2024-03-14T01:46:49.661Z,7.8
2024-03-14T01:47:51.729Z,7.8
2024-03-14T01:48:53.794Z,7.8
2024-03-14T01:49:55.661Z,7.8
2024-03-14T01:50:57.661Z,7.8
2024-03-14T01:51:59.656Z,7.8
2024-03-14T01:53:01.681Z,7.8
2024-03-14T01:54:03.692Z,7.8
2024-03-14T01:55:05.670Z,7.8
2024-03-14T01:56:07.651Z,7.8
2024-03-14T01:57:09.661Z,7.8
2024-03-14T01:58:11.698Z,7.8
2024-03-14T01:59:13.649Z,7.8
2024-03-14T02:00:15.979Z,7.8
2024-03-14T02:01:17.656Z,7.8
2024-03-14T02:02:19.673Z,7.8
2024-03-14T02:03:21.663Z,7.8
2024-03-14T02:04:23.644Z,7.8
2024-03-14T02:05:25.640Z,7.8
2024-03-14T02:06:27.693Z,7.8
2024-03-14T02:07:29.698Z,7.8
2024-03-14T02:08:31.636Z,7.8
2024-03-14T02:09:33.645Z,7.8
2024-03-14T02:10:35.653Z,7.8
2024-03-14T02:11:37.671Z,7.8
2024-03-14T02:12:39.663Z,7.8
2024-03-14T02:13:41.654Z,7.8
2024-03-14T02:14:43.627Z,7.8
2024-03-14T02:15:45.634Z,7.8
2024-03-14T02:16:47.652Z,7.8
2024-03-14T02:17:49.699Z,7.8
2024-03-14T02:18:51.662Z,7.8
2024-03-14T02:19:53.627Z,7.8
2024-03-14T02:20:55.685Z,7.8
2024-03-14T02:21:57.649Z,7.8
2024-03-14T02:22:59.645Z,7.8
2024-03-14T02:24:01.634Z,7.8
2024-03-14T02:25:03.614Z,7.8
2024-03-14T02:26:05.710Z,7.8
2024-03-14T02:27:07.664Z,7.8
2024-03-14T02:28:09.611Z,7.8
2024-03-14T02:29:11.648Z,7.8
2024-03-14T02:30:13.667Z,7.8
2024-03-14T02:31:15.643Z,7.7
2024-03-14T02:32:17.607Z,7.8
2024-03-14T02:33:19.673Z,7.8
2024-03-14T02:34:21.613Z,7.8
2024-03-14T02:35:23.632Z,7.8
2024-03-14T02:36:25.629Z,7.8
2024-03-14T02:37:27.609Z,7.8
2024-03-14T02:38:29.619Z,7.8
2024-03-14T02:39:31.644Z,7.8
2024-03-14T02:40:33.631Z,7.8
2024-03-14T02:41:35.601Z,7.8
2024-03-14T02:42:37.599Z,7.7
2024-03-14T02:43:39.595Z,7.7
2024-03-14T02:44:41.637Z,7.7
2024-03-14T02:45:43.588Z,7.7
2024-03-14T02:46:45.589Z,7.7
2024-03-14T02:47:47.661Z,7.6
2024-03-14T02:48:49.693Z,7.7
2024-03-14T02:49:51.610Z,7.6
2024-03-14T02:50:53.620Z,7.7
2024-03-14T02:51:55.586Z,7.7
2024-03-14T02:52:57.631Z,7.7
2024-03-14T02:53:59.702Z,7.7
2024-03-14T02:55:01.576Z,7.8
2024-03-14T02:56:03.579Z,7.7
2024-03-14T02:57:05.596Z,7.7
2024-03-14T02:58:07.575Z,7.8
2024-03-14T02:59:09.605Z,7.8
2024-03-14T03:00:11.654Z,7.8
2024-03-14T03:01:13.611Z,7.8
2024-03-14T03:02:15.571Z,7.8
2024-03-14T03:03:17.615Z,7.8
2024-03-14T03:04:19.567Z,7.7
2024-03-14T03:05:21.582Z,7.7
2024-03-14T03:06:23.584Z,7.7
2024-03-14T03:07:25.588Z,7.7
2024-03-14T03:08:27.596Z,7.7
2024-03-14T03:09:29.575Z,7.7
2024-03-14T03:10:31.559Z,7.6
2024-03-14T03:11:33.569Z,7.7
2024-03-14T03:12:35.647Z,7.7
2024-03-14T03:13:37.560Z,7.6
2024-03-14T03:14:39.561Z,7.6
2024-03-14T03:15:41.610Z,7.6
2024-03-14T03:16:43.553Z,7.6
2024-03-14T03:17:45.624Z,7.6
2024-03-14T03:18:47.596Z,7.6
2024-03-14T03:19:49.549Z,7.6
2024-03-14T03:20:51.555Z,7.6
2024-03-14T03:21:53.574Z,7.5
2024-03-14T03:22:55.544Z,7.5
2024-03-14T03:23:57.573Z,7.5
2024-03-14T03:24:59.546Z,7.5
2024-03-14T03:26:01.574Z,7.5
2024-03-14T03:27:03.580Z,7.5
2024-03-14T03:28:05.549Z,7.5
2024-03-14T03:29:07.632Z,7.5
2024-03-14T03:30:09.568Z,7.5
2024-03-14T03:31:11.584Z,7.5
2024-03-14T03:32:13.577Z,7.5
2024-03-14T03:33:15.575Z,7.5
2024-03-14T03:34:17.535Z,7.5
2024-03-14T03:35:21.430Z,7.4
2024-03-14T03:36:26.578Z,7.4
2024-03-14T03:37:28.506Z,7.4
2024-03-14T03:38:30.509Z,7.3
2024-03-14T03:39:32.655Z,7.2
2024-03-14T03:40:34.530Z,7.2
2024-03-14T03:41:36.534Z,7.2
2024-03-14T03:42:38.512Z,7.2
2024-03-14T03:43:40.501Z,7.2
2024-03-14T03:44:42.501Z,7.1
2024-03-14T03:45:44.524Z,7
2024-03-14T03:46:46.537Z,7
2024-03-14T03:47:48.685Z,7
2024-03-14T03:48:50.529Z,7
2024-03-14T03:49:52.516Z,6.9
2024-03-14T03:50:54.536Z,6.9
2024-03-14T03:51:56.488Z,6.8
2024-03-14T03:52:58.489Z,6.8
2024-03-14T03:54:00.536Z,6.7
2024-03-14T03:55:02.508Z,6.7
2024-03-14T03:56:04.481Z,6.7
2024-03-14T03:57:06.489Z,6.6
2024-03-14T03:58:08.486Z,6.6
2024-03-14T03:59:10.506Z,6.6
2024-03-14T04:00:12.552Z,6.5
2024-03-14T04:01:14.745Z,6.5
2024-03-14T04:02:16.526Z,6.5
2024-03-14T04:03:18.520Z,6.5
2024-03-14T04:04:20.501Z,6.4
2024-03-14T04:05:22.476Z,6.4
2024-03-14T04:06:24.486Z,6.4
2024-03-14T04:07:26.468Z,6.4
2024-03-14T04:08:28.493Z,6.4
2024-03-14T04:09:30.546Z,6.4
2024-03-14T04:10:32.462Z,6.4
2024-03-14T04:11:34.587Z,6.4
2024-03-14T04:12:36.578Z,6.3
2024-03-14T04:13:38.498Z,6.3
2024-03-14T04:14:40.460Z,6.3
2024-03-14T04:15:42.467Z,6.2
2024-03-14T04:16:44.461Z,6.2
2024-03-14T04:17:46.703Z,6.2
2024-03-14T04:18:48.507Z,6.1
2024-03-14T04:19:50.455Z,6.1
2024-03-14T04:20:52.461Z,6.1
2024-03-14T04:21:54.459Z,6
2024-03-14T04:22:56.473Z,6
2024-03-14T04:23:58.466Z,6
2024-03-14T04:25:00.449Z,5.9
2024-03-14T04:26:02.449Z,5.9
2024-03-14T04:27:04.499Z,5.9
2024-03-14T04:28:06.520Z,5.8
2024-03-14T04:29:08.439Z,5.8
2024-03-14T04:30:10.465Z,5.8
2024-03-14T04:31:12.438Z,5.8
2024-03-14T04:32:14.461Z,5.8
2024-03-14T04:33:16.476Z,5.8
2024-03-14T04:34:18.432Z,5.8
2024-03-14T04:35:20.439Z,5.8
2024-03-14T04:36:22.458Z,5.8
2024-03-14T04:37:24.476Z,5.8
2024-03-14T04:38:26.428Z,5.8
2024-03-14T04:39:28.496Z,5.8
2024-03-14T04:40:30.423Z,5.8
2024-03-14T04:41:32.462Z,5.8
2024-03-14T04:42:34.498Z,5.8
2024-03-14T04:43:36.419Z,5.8
2024-03-14T04:44:38.417Z,5.8
2024-03-14T04:45:40.445Z,5.8
2024-03-14T04:46:42.446Z,5.8
2024-03-14T04:47:44.441Z,5.8
2024-03-14T04:48:46.483Z,5.8
2024-03-14T04:49:48.415Z,5.8
2024-03-14T04:50:50.503Z,5.7
2024-03-14T04:51:52.432Z,5.7
2024-03-14T04:52:54.412Z,5.7
2024-03-14T04:53:56.417Z,5.7
2024-03-14T04:54:58.412Z,5.6
2024-03-14T04:56:00.443Z,5.6
2024-03-14T04:57:02.464Z,5.6
2024-03-14T04:58:04.411Z,5.5
2024-03-14T04:59:06.405Z,5.5
2024-03-14T05:00:08.494Z,5.5
2024-03-14T05:01:10.453Z,5.5
2024-03-14T05:02:12.400Z,5.5
2024-03-14T05:03:14.417Z,5.5
2024-03-14T05:04:16.418Z,5.4
2024-03-14T05:05:18.440Z,5.4
2024-03-14T05:06:20.396Z,5.3
2024-03-14T05:07:22.397Z,5.3
2024-03-14T05:08:24.400Z,5.3
2024-03-14T05:09:26.458Z,5.3
2024-03-14T05:10:28.432Z,5.3
2024-03-14T05:11:30.404Z,5.3
2024-03-14T05:12:32.455Z,5.3
2024-03-14T05:13:34.401Z,5.3
2024-03-14T05:14:36.407Z,5.3
2024-03-14T05:15:38.478Z,5.2
2024-03-14T05:16:40.379Z,5.3
2024-03-14T05:17:42.410Z,5.3
2024-03-14T05:18:44.450Z,5.3
2024-03-14T05:19:46.422Z,5.2
2024-03-14T05:20:48.395Z,5.2
2024-03-14T05:21:50.379Z,5.2
2024-03-14T05:22:52.376Z,5.2
2024-03-14T05:23:54.411Z,5.3
2024-03-14T05:24:56.370Z,5.3
2024-03-14T05:25:58.369Z,5.3
2024-03-14T05:27:00.386Z,5.3
2024-03-14T05:28:02.401Z,5.3
2024-03-14T05:29:04.403Z,5.3
2024-03-14T05:30:06.447Z,5.3
2024-03-14T05:31:08.362Z,5.2
2024-03-14T05:32:10.364Z,5.1
2024-03-14T05:33:12.478Z,5.1
2024-03-14T05:34:14.358Z,5.1
2024-03-14T05:35:16.381Z,5.1
2024-03-14T05:36:18.380Z,5
2024-03-14T05:37:20.377Z,5
2024-03-14T05:38:22.649Z,5
2024-03-14T05:39:24.369Z,5
2024-03-14T05:40:26.350Z,4.9
2024-03-14T05:41:28.352Z,4.9
2024-03-14T05:42:30.430Z,4.9
2024-03-14T05:43:32.347Z,4.8
2024-03-14T05:44:34.347Z,4.8
2024-03-14T05:45:36.363Z,4.8
2024-03-14T05:46:38.370Z,4.8
2024-03-14T05:47:41.017Z,4.8
2024-03-14T05:48:42.480Z,4.9
2024-03-14T05:49:44.438Z,4.9
2024-03-14T05:50:46.466Z,5
2024-03-14T05:51:48.461Z,5
2024-03-14T05:52:50.441Z,5
2024-03-14T05:53:52.457Z,5
2024-03-14T05:54:54.442Z,5.1
2024-03-14T05:55:56.458Z,5.1
2024-03-14T05:56:58.465Z,5.1
2024-03-14T05:58:00.429Z,5.1
2024-03-14T05:59:02.433Z,5.1
2024-03-14T06:00:04.454Z,5.2
2024-03-14T06:01:06.491Z,5.3
2024-03-14T06:02:08.433Z,5.3
2024-03-14T06:03:10.489Z,5.5
2024-03-14T06:04:12.424Z,5.5
2024-03-14T06:05:14.450Z,5.5
2024-03-14T06:06:16.498Z,5.5
2024-03-14T06:07:20.496Z,5.5
2024-03-14T06:08:23.938Z,5.6
2024-03-14T06:09:25.982Z,5.6
2024-03-14T06:10:27.975Z,5.7
2024-03-14T06:12:35.998Z,5.7
2024-03-14T06:13:37.957Z,5.8
2024-03-14T06:14:40.002Z,5.8
2024-03-14T06:15:42.289Z,5.9
2024-03-14T06:16:43.973Z,5.9
2024-03-14T06:17:45.980Z,6
2024-03-14T06:18:47.980Z,6
2024-03-14T06:19:49.974Z,6
2024-03-14T06:20:51.971Z,6
2024-03-14T06:21:53.964Z,6.1
2024-03-14T06:22:55.946Z,6.1
2024-03-14T06:23:57.986Z,6.1
2024-03-14T06:24:59.967Z,6.1
2024-03-14T06:26:01.944Z,6.1
2024-03-14T06:27:03.957Z,6.1
2024-03-14T06:28:05.936Z,6.1
2024-03-14T06:29:07.962Z,6.1
2024-03-14T06:30:09.967Z,6.2
2024-03-14T06:31:13.815Z,6.2
2024-03-14T06:32:16.258Z,6.1
2024-03-14T06:33:18.099Z,6.2
2024-03-14T06:34:19.832Z,6.2
2024-03-14T06:35:21.750Z,6.2
2024-03-14T06:36:23.776Z,6.2
2024-03-14T06:37:25.944Z,6.2
2024-03-14T06:38:27.774Z,6.2
2024-03-14T06:39:31.365Z,6.2
2024-03-14T06:40:36.312Z,6.2
2024-03-14T06:41:38.250Z,6.2
2024-03-14T06:42:40.277Z,6.3
2024-03-14T06:43:42.530Z,6.3
2024-03-14T06:44:44.259Z,6.3
2024-03-14T06:45:46.687Z,6.3
2024-03-14T06:46:48.231Z,6.3
2024-03-14T06:47:50.412Z,6.3
2024-03-14T06:48:52.247Z,6.3
2024-03-14T06:49:54.241Z,6.3
2024-03-14T06:50:56.248Z,6.3
2024-03-14T06:51:58.465Z,6.3
2024-03-14T06:53:00.285Z,6.3
2024-03-14T06:54:04.011Z,6.3
2024-03-14T06:55:05.018Z,6.4
2024-03-14T06:56:07.029Z,6.4
2024-03-14T06:57:09.056Z,6.4
2024-03-14T06:58:11.005Z,6.4
2024-03-14T06:59:12.997Z,6.4
2024-03-14T07:00:15.301Z,6.4
2024-03-14T07:01:17.259Z,6.4
2024-03-14T07:02:19.022Z,6.4
2024-03-14T07:03:21.052Z,6.5
2024-03-14T07:04:23.003Z,6.4
2024-03-14T07:05:24.990Z,6.4
2024-03-14T07:06:27.023Z,6.5
2024-03-14T07:07:28.998Z,6.5
2024-03-14T07:08:31.252Z,6.5
2024-03-14T07:09:33.112Z,6.5
2024-03-14T07:10:35.013Z,6.5
2024-03-14T07:11:37.102Z,6.5
2024-03-14T07:12:39.044Z,6.5
2024-03-14T07:13:40.989Z,6.5
2024-03-14T07:14:42.978Z,6.5
2024-03-14T07:15:45.006Z,6.5
2024-03-14T07:16:46.981Z,6.5
2024-03-14T07:17:49.033Z,6.5
2024-03-14T07:18:51.278Z,6.5
2024-03-14T07:19:53.000Z,6.5
2024-03-14T07:20:55.010Z,6.4
2024-03-14T07:21:56.976Z,6.5
2024-03-14T07:22:58.979Z,6.5
2024-03-14T07:24:01.021Z,6.5
2024-03-14T07:25:04.282Z,6.5
2024-03-14T07:26:10.045Z,6.5
2024-03-14T07:27:12.080Z,6.5
2024-03-14T07:28:14.261Z,6.5
2024-03-14T07:29:16.052Z,6.5
2024-03-14T07:30:18.115Z,6.5
2024-03-14T07:31:20.028Z,6.5
2024-03-14T07:32:22.035Z,6.6
2024-03-14T07:33:24.084Z,6.6
2024-03-14T07:34:26.043Z,6.6
2024-03-14T07:35:28.029Z,6.6
2024-03-14T07:36:30.113Z,6.7
2024-03-14T07:37:32.014Z,6.6
2024-03-14T07:38:34.012Z,6.7
2024-03-14T07:39:36.205Z,6.7
2024-03-14T07:40:38.011Z,6.8
2024-03-14T07:41:40.014Z,6.8
2024-03-14T07:42:42.051Z,6.9
2024-03-14T07:43:44.075Z,6.9
2024-03-14T07:44:46.029Z,7
2024-03-14T07:45:48.081Z,7
2024-03-14T07:46:50.077Z,7
2024-03-14T07:47:52.076Z,7
2024-03-14T07:48:54.084Z,7
2024-03-14T07:49:56.006Z,7
2024-03-14T07:50:58.000Z,7
2024-03-14T07:51:59.999Z,7
2024-03-14T07:53:02.025Z,7
2024-03-14T07:54:04.156Z,7
2024-03-14T07:55:06.013Z,7
2024-03-14T07:56:07.988Z,7
2024-03-14T07:57:10.050Z,7
2024-03-14T07:58:12.012Z,7
2024-03-14T07:59:13.998Z,7
2024-03-14T08:00:16.034Z,7.2
2024-03-14T08:01:18.020Z,7.2
2024-03-14T08:02:19.997Z,7.2
2024-03-14T08:03:22.018Z,7.2
2024-03-14T08:04:23.978Z,7.2
2024-03-14T08:05:25.977Z,7.3
2024-03-14T08:06:28.042Z,7.4
2024-03-14T08:07:30.004Z,7.4
2024-03-14T08:08:32.007Z,7.5
2024-03-14T08:09:34.031Z,7.5
2024-03-14T08:10:35.998Z,7.5
2024-03-14T08:11:38.000Z,7.5
2024-03-14T08:12:39.996Z,7.6
2024-03-14T08:13:41.981Z,7.6
2024-03-14T08:14:43.972Z,7.6
2024-03-14T08:15:46.199Z,7.7
2024-03-14T08:16:47.994Z,7.8
2024-03-14T08:17:49.997Z,7.8
2024-03-14T08:18:52.257Z,7.8
2024-03-14T08:19:53.964Z,7.9
2024-03-14T08:20:55.994Z,8
2024-03-14T08:21:57.984Z,8
2024-03-14T08:22:59.955Z,8.1
2024-03-14T08:24:01.992Z,8.2
2024-03-14T08:25:03.960Z,8.3
2024-03-14T08:26:06.001Z,8.4
2024-03-14T08:27:08.056Z,8.4
2024-03-14T08:28:09.950Z,8.5
2024-03-14T08:29:11.971Z,8.6
2024-03-14T08:30:14.511Z,8.6
2024-03-14T08:31:16.020Z,8.6
2024-03-14T08:32:18.272Z,8.6
2024-03-14T08:33:20.384Z,8.7
2024-03-14T08:34:21.995Z,8.8
2024-03-14T08:35:24.133Z,8.9
2024-03-14T08:36:26.255Z,9
2024-03-14T08:37:28.284Z,9
2024-03-14T08:38:30.297Z,9
2024-03-14T08:39:32.383Z,9
2024-03-14T08:40:34.100Z,9.1
2024-03-14T08:41:35.971Z,9.1
2024-03-14T08:42:42.821Z,9.2
2024-03-14T08:43:52.863Z,9.2
2024-03-14T08:44:57.076Z,9.2
2024-03-14T08:45:59.733Z,9.2
2024-03-14T08:47:01.321Z,9.2
2024-03-14T08:48:03.418Z,9.4
2024-03-14T08:49:05.709Z,9.4
2024-03-14T08:50:07.683Z,9.4
2024-03-14T08:51:09.729Z,9.5
2024-03-14T08:52:11.478Z,9.5
2024-03-14T08:53:13.501Z,9.5
2024-03-14T08:54:15.358Z,9.4
2024-03-14T08:55:17.319Z,9.4
2024-03-14T08:56:19.389Z,9.4
2024-03-14T08:57:21.766Z,9.3
2024-03-14T08:58:23.803Z,9.2
2024-03-14T08:59:25.854Z,9.2
2024-03-14T09:00:27.355Z,9.2
2024-03-14T09:01:29.334Z,9.2
2024-03-14T09:02:31.697Z,9.2
2024-03-14T09:03:33.474Z,9.2
2024-03-14T09:04:35.868Z,9.2
2024-03-14T09:05:37.849Z,9.2
2024-03-14T09:06:39.410Z,9.2
2024-03-14T09:07:41.671Z,9.2
2024-03-14T09:08:43.438Z,9.2
2024-03-14T09:09:45.770Z,9.3
2024-03-14T09:10:47.554Z,9.4
2024-03-14T09:11:49.599Z,9.4
2024-03-14T09:12:51.681Z,9.5
2024-03-14T09:13:53.700Z,9.6
2024-03-14T09:14:55.839Z,9.7
2024-03-14T09:15:57.789Z,9.8
2024-03-14T09:16:59.291Z,9.9
2024-03-14T09:18:02.175Z,9.9
2024-03-14T09:19:05.586Z,9.9
2024-03-14T09:20:07.236Z,10
2024-03-14T09:21:09.047Z,10
2024-03-14T09:22:11.369Z,9.9
2024-03-14T09:23:13.070Z,9.9
2024-03-14T09:24:15.057Z,10
2024-03-14T09:25:17.036Z,10
2024-03-14T09:26:19.038Z,9.9
2024-03-14T09:27:21.093Z,9.9
2024-03-14T09:28:23.068Z,9.8
2024-03-14T09:29:25.036Z,9.9
2024-03-14T09:30:27.070Z,10
2024-03-14T09:31:29.054Z,10
2024-03-14T09:32:31.086Z,10
2024-03-14T09:33:33.085Z,10.1
2024-03-14T09:34:35.028Z,10.1
2024-03-14T09:35:37.026Z,10.1
2024-03-14T09:36:39.079Z,10.1
2024-03-14T09:37:41.023Z,10.1
2024-03-14T09:38:43.042Z,10.2
2024-03-14T09:39:45.087Z,10.1
2024-03-14T09:40:47.044Z,10
2024-03-14T09:41:49.049Z,10
2024-03-14T09:42:51.026Z,10
2024-03-14T09:43:53.262Z,9.9
2024-03-14T09:44:55.024Z,9.9
2024-03-14T09:45:57.083Z,9.9
2024-03-14T09:46:59.010Z,9.9
2024-03-14T09:48:01.133Z,9.8
2024-03-14T09:49:03.042Z,9.7
2024-03-14T09:50:05.007Z,9.7
2024-03-14T09:51:07.057Z,9.7
2024-03-14T09:52:09.004Z,9.7
2024-03-14T09:53:11.006Z,9.8
2024-03-14T09:54:13.033Z,9.9
2024-03-14T09:55:15.029Z,10
2024-03-14T09:56:17.003Z,10
2024-03-14T09:57:19.051Z,10
2024-03-14T09:58:21.001Z,10
2024-03-14T09:59:23.025Z,10
2024-03-14T10:00:25.043Z,10
2024-03-14T10:01:27.055Z,10
2024-03-14T10:02:28.996Z,10
2024-03-14T10:03:31.015Z,10.1
2024-03-14T10:04:33.026Z,10.1
2024-03-14T10:05:35.017Z,10.1
2024-03-14T10:06:37.067Z,10.2
2024-03-14T10:07:38.990Z,10.1
2024-03-14T10:08:40.985Z,10.1
2024-03-14T10:09:43.023Z,10
2024-03-14T10:10:44.988Z,10
2024-03-14T10:11:47.018Z,10
2024-03-14T10:12:49.084Z,10
2024-03-14T10:13:51.636Z,10
2024-03-14T10:14:53.051Z,10.1
2024-03-14T10:15:55.018Z,10.2
2024-03-14T10:16:56.978Z,10.2
2024-03-14T10:17:59.120Z,10.2
2024-03-14T10:19:01.062Z,10.2
2024-03-14T10:20:03.003Z,10.2
2024-03-14T10:21:05.653Z,10.4
2024-03-14T10:22:06.973Z,10.6
2024-03-14T10:23:09.075Z,10.7
2024-03-14T10:24:11.009Z,10.9
2024-03-14T10:25:12.968Z,11
2024-03-14T10:26:15.249Z,11.1
2024-03-14T10:27:16.997Z,11.3
2024-03-14T10:28:19.437Z,11.4
2024-03-14T10:29:20.986Z,11.5
2024-03-14T10:30:23.059Z,11.5
2024-03-14T10:31:24.963Z,11.7
2024-03-14T10:32:26.984Z,11.6
2024-03-14T10:33:29.182Z,11.7
2024-03-14T10:34:30.969Z,11.9
2024-03-14T10:35:33.230Z,11.9
2024-03-14T10:36:34.984Z,12
2024-03-14T10:37:36.987Z,12
2024-03-14T10:38:38.995Z,11.9
2024-03-14T10:39:41.049Z,11.9
2024-03-14T10:40:43.385Z,11.9
2024-03-14T10:41:44.984Z,11.7
2024-03-14T10:42:46.979Z,11.6
2024-03-14T10:43:48.955Z,11.4
2024-03-14T10:44:50.947Z,11.3
2024-03-14T10:45:53.001Z,11.2
2024-03-14T10:46:54.973Z,11.1
2024-03-14T10:47:57.111Z,11.1
2024-03-14T10:48:58.998Z,11
2024-03-14T10:50:00.941Z,10.9
2024-03-14T10:51:02.954Z,11
2024-03-14T10:52:04.974Z,11.1
2024-03-14T10:53:07.366Z,11.1
2024-03-14T10:54:08.948Z,11.1
2024-03-14T10:55:11.089Z,11.2
2024-03-14T10:56:13.037Z,11.3
2024-03-14T10:57:14.953Z,11.4
2024-03-14T10:58:16.938Z,11.3
2024-03-14T10:59:19.003Z,11.4
2024-03-14T11:00:21.395Z,11.4
2024-03-14T11:01:23.114Z,11.5
2024-03-14T11:02:25.446Z,11.5
2024-03-14T11:03:27.286Z,11.7
2024-03-14T11:04:29.244Z,11.7
2024-03-14T11:05:31.293Z,11.7
2024-03-14T11:06:33.108Z,11.6
2024-03-14T11:07:35.099Z,11.7
2024-03-14T11:08:37.464Z,11.9
2024-03-14T11:09:39.275Z,12.1
2024-03-14T11:10:41.588Z,12.4
2024-03-14T11:11:43.122Z,12.5
2024-03-14T11:12:45.165Z,12.5
2024-03-14T11:13:47.409Z,12.5
2024-03-14T11:14:49.176Z,12.5
2024-03-14T11:15:51.557Z,12.5
2024-03-14T11:16:53.015Z,12.6
2024-03-14T11:17:55.368Z,12.5
2024-03-14T11:18:57.221Z,12.5
2024-03-14T11:19:58.961Z,12.5
2024-03-14T11:21:01.537Z,12.4
2024-03-14T11:22:03.285Z,12.4
2024-03-14T11:23:05.045Z,12.4
2024-03-14T11:24:07.150Z,12.3
2024-03-14T11:25:09.104Z,12.3
2024-03-14T11:26:11.498Z,12.3
2024-03-14T11:27:13.313Z,12.4
2024-03-14T11:28:15.269Z,12.5
2024-03-14T11:29:17.620Z,12.5
2024-03-14T11:30:19.410Z,12.7
2024-03-14T11:31:20.892Z,13.1
2024-03-14T11:32:23.232Z,13.4
2024-03-14T11:33:24.979Z,13.7
2024-03-14T11:34:26.926Z,13.7
2024-03-14T11:35:28.891Z,13.8
2024-03-14T11:36:30.921Z,13.7
2024-03-14T11:37:32.898Z,13.6
2024-03-14T11:38:34.930Z,13.6
2024-03-14T11:39:36.914Z,13.5
2024-03-14T11:40:38.882Z,13.5
2024-03-14T11:41:40.880Z,13.5
2024-03-14T11:42:42.923Z,13.3
2024-03-14T11:43:44.907Z,13.3
2024-03-14T11:44:46.938Z,13.1
2024-03-14T11:45:48.911Z,12.9
2024-03-14T11:46:50.884Z,12.8
2024-03-14T11:47:52.966Z,12.7
2024-03-14T11:48:54.895Z,12.5
2024-03-14T11:49:56.895Z,12.5
2024-03-14T11:50:58.899Z,12.5
2024-03-14T11:52:00.869Z,12.7
2024-03-14T11:53:02.904Z,12.7
2024-03-14T11:54:04.890Z,12.7
2024-03-14T11:55:06.867Z,12.8
2024-03-14T11:56:10.821Z,12.8
2024-03-14T11:57:13.343Z,12.9
2024-03-14T11:58:17.701Z,13.1
2024-03-14T11:59:19.227Z,13.3
2024-03-14T12:00:21.265Z,13.5
2024-03-14T12:01:25.265Z,13.6
2024-03-14T12:02:47.608Z,13.7
2024-03-14T12:03:49.547Z,13.7
2024-03-14T12:04:51.513Z,13.8
2024-03-14T12:05:53.619Z,13.7
2024-03-14T12:06:55.602Z,13.6
2024-03-14T12:07:57.531Z,13.4
2024-03-14T12:08:59.549Z,13.3
2024-03-14T12:10:01.499Z,13.2
2024-03-14T12:11:03.612Z,13.1
2024-03-14T12:12:05.560Z,13.1
2024-03-14T12:13:07.517Z,13.1
2024-03-14T12:14:09.499Z,13.2
2024-03-14T12:15:11.539Z,13.3
2024-03-14T12:16:14.711Z,13.3
2024-03-14T12:17:15.521Z,13.5
2024-03-14T12:18:17.639Z,13.7
2024-03-14T12:19:19.566Z,14.1
2024-03-14T12:20:21.566Z,14.4
2024-03-14T12:21:23.575Z,14.6
2024-03-14T12:22:25.506Z,14.8
2024-03-14T12:23:27.507Z,15
2024-03-14T12:24:29.671Z,15.4
2024-03-14T12:25:31.567Z,15.7
2024-03-14T12:26:33.502Z,16.2
2024-03-14T12:27:35.538Z,16.5
2024-03-14T12:28:37.550Z,17
2024-03-14T12:29:39.536Z,17.2
2024-03-14T12:30:41.584Z,17.2
2024-03-14T12:31:43.503Z,17
2024-03-14T12:32:45.520Z,16.9
2024-03-14T12:33:47.602Z,17
2024-03-14T12:34:49.546Z,16.9
2024-03-14T12:35:51.504Z,16.7
2024-03-14T12:36:53.501Z,16.8
2024-03-14T12:37:55.492Z,17
2024-03-14T12:38:57.532Z,17
2024-03-14T12:39:59.633Z,17.3
2024-03-14T12:41:01.485Z,17.8
2024-03-14T12:42:03.509Z,18.1
2024-03-14T12:43:05.485Z,18.1
2024-03-14T12:44:07.511Z,18
2024-03-14T12:45:09.574Z,18
2024-03-14T12:46:11.484Z,18.1
2024-03-14T12:47:13.479Z,18.6
2024-03-14T12:48:15.549Z,18.9
2024-03-14T12:49:17.499Z,19.2
2024-03-14T12:50:19.504Z,18.9
2024-03-14T12:51:21.492Z,18.3
2024-03-14T12:52:23.473Z,17.5
2024-03-14T12:53:25.768Z,16.7
2024-03-14T12:54:27.479Z,15.9
2024-03-14T12:55:29.469Z,15.4
2024-03-14T12:56:31.467Z,15
2024-03-14T12:57:33.527Z,14.9
2024-03-14T12:58:35.487Z,14.7
2024-03-14T12:59:37.848Z,14.4
2024-03-14T13:00:39.498Z,14.2
2024-03-14T13:01:41.476Z,14
2024-03-14T13:02:43.490Z,14
2024-03-14T13:03:45.513Z,13.9
2024-03-14T13:04:47.460Z,13.7
2024-03-14T13:05:49.493Z,13.6
2024-03-14T13:06:51.612Z,13.5
2024-03-14T13:07:53.478Z,13.5
2024-03-14T13:08:55.463Z,13.4
2024-03-14T13:09:57.455Z,13.3
2024-03-14T13:10:59.488Z,13.3
2024-03-14T13:12:01.517Z,13.3
2024-03-14T13:13:03.475Z,13.2
2024-03-14T13:14:05.448Z,13.2
2024-03-14T13:15:07.470Z,13.2
2024-03-14T13:16:09.457Z,13.2
2024-03-14T13:17:11.477Z,13.2
2024-03-14T13:18:13.502Z,13.2
2024-03-14T13:19:15.474Z,13.2
2024-03-14T13:20:17.439Z,13.1
2024-03-14T13:21:19.483Z,13.1
2024-03-14T13:22:21.465Z,13.1
2024-03-14T13:23:23.436Z,13.1
2024-03-14T13:24:25.450Z,13.2
2024-03-14T13:25:27.756Z,13.2
2024-03-14T13:26:29.460Z,13.3
2024-03-14T13:27:31.872Z,13.3
2024-03-14T13:28:34.978Z,13.2
2024-03-14T13:29:36.979Z,13.1
2024-03-14T13:30:39.044Z,13.1
2024-03-14T13:31:41.000Z,13.1
2024-03-14T13:32:42.993Z,13.1
2024-03-14T13:33:45.035Z,13.1
2024-03-14T13:34:46.978Z,13.1
2024-03-14T13:35:49.003Z,13.1
2024-03-14T13:36:51.171Z,13.1
2024-03-14T13:37:52.968Z,13.1
2024-03-14T13:38:54.989Z,13.1
2024-03-14T13:39:57.005Z,13.1
2024-03-14T13:40:58.991Z,13.1
2024-03-14T13:42:01.002Z,13.1
2024-03-14T13:43:02.960Z,13.1
2024-03-14T13:44:04.960Z,13.1
2024-03-14T13:45:07.072Z,13.1
2024-03-14T13:46:08.993Z,13.2
2024-03-14T13:47:11.116Z,13.2
2024-03-14T13:48:13.005Z,13.2
2024-03-14T13:49:14.983Z,13.2
2024-03-14T13:50:17.304Z,13.2
2024-03-14T13:51:18.972Z,13.3
2024-03-14T13:52:20.984Z,13.3
2024-03-14T13:53:31.369Z,13.3
2024-03-14T13:54:34.087Z,13.3
2024-03-14T13:55:36.052Z,13.3
2024-03-14T13:56:38.021Z,13.3
2024-03-14T13:57:40.080Z,13.3
2024-03-14T13:58:42.021Z,13.3
2024-03-14T13:59:44.045Z,13.3
2024-03-14T14:00:46.048Z,13.3
2024-03-14T14:01:48.010Z,13.3
2024-03-14T14:02:50.592Z,13.3
2024-03-14T14:03:52.383Z,13.3
2024-03-14T14:04:54.396Z,13.4
2024-03-14T14:05:56.111Z,13.3
2024-03-14T14:06:58.096Z,13.3
2024-03-14T14:08:00.115Z,13.3
2024-03-14T14:09:02.137Z,13.3
2024-03-14T14:10:04.087Z,13.3
2024-03-14T14:11:06.121Z,13.3
2024-03-14T14:12:08.112Z,13.2